createdAt,value
2023-02-02T00:00:39.059Z,2.95
2023-02-02T00:05:53.288Z,2.97
2023-02-02T00:10:54.968Z,2.50
2023-02-02T00:15:56.776Z,3.00
2023-02-02T00:20:58.713Z,2.60
2023-02-02T00:26:00.636Z,2.53
2023-02-02T00:31:02.451Z,2.72
2023-02-02T00:36:05.024Z,2.97
2023-02-02T00:41:07.288Z,2.72
2023-02-02T00:46:18.898Z,2.25
2023-02-02T00:51:21.104Z,3.10
2023-02-02T00:56:23.077Z,2.65
2023-02-02T01:01:25.998Z,2.22
2023-02-02T01:11:30.820Z,2.42
2023-02-02T01:16:32.757Z,2.83
2023-02-02T01:21:35.893Z,2.88
2023-02-02T01:26:37.678Z,2.67
2023-02-02T01:31:39.692Z,2.78
2023-02-02T01:36:41.362Z,3.20
2023-02-02T01:41:43.147Z,2.80
2023-02-02T01:46:44.864Z,2.90
2023-02-02T01:57:00.657Z,2.45
2023-02-02T02:02:02.986Z,3.20
2023-02-02T02:07:07.195Z,3.33
2023-02-02T02:17:25.189Z,1.98
2023-02-02T02:23:14.878Z,2.60
2023-02-02T02:28:42.222Z,3.25
2023-02-02T02:33:59.983Z,3.08
2023-02-02T02:39:15.885Z,2.53
2023-02-02T02:44:19.802Z,2.53
2023-02-02T02:49:21.531Z,2.63
2023-02-02T02:54:45.627Z,2.90
2023-02-02T02:59:54.163Z,3.95
2023-02-02T03:05:37.344Z,2.60
2023-02-02T03:10:42.573Z,2.58
2023-02-02T03:15:45.269Z,2.90
2023-02-02T03:20:47.153Z,2.58
2023-02-02T03:25:49.061Z,2.83
2023-02-02T03:30:52.014Z,3.10
2023-02-02T03:35:54.076Z,2.38
2023-02-02T03:40:56.015Z,2.95
2023-02-02T03:51:14.471Z,2.10
2023-02-02T04:01:18.137Z,2.58
2023-02-02T04:06:20.573Z,2.57
2023-02-02T04:11:22.295Z,3.03
2023-02-02T04:16:24.230Z,2.40
2023-02-02T04:21:26.081Z,2.20
2023-02-02T04:26:28.468Z,2.60
2023-02-02T04:31:30.413Z,2.78
2023-02-02T04:36:32.114Z,2.23
2023-02-02T04:41:33.871Z,2.38
2023-02-02T04:46:35.500Z,3.15
2023-02-02T04:51:38.618Z,3.20
2023-02-02T04:56:40.263Z,2.83
2023-02-02T05:01:41.959Z,3.08
2023-02-02T05:06:44.341Z,3.15
2023-02-02T05:11:45.997Z,3.50
2023-02-02T05:16:49.978Z,2.87
2023-02-02T05:21:51.864Z,2.78
2023-02-02T05:26:58.353Z,2.75
2023-02-02T05:32:00.969Z,3.05
2023-02-02T05:37:02.787Z,2.40
2023-02-02T05:42:04.471Z,2.60
2023-02-02T05:47:06.123Z,2.50
2023-02-02T05:52:09.181Z,2.95
2023-02-02T05:57:10.869Z,2.72
2023-02-02T06:02:12.828Z,2.70
2023-02-02T06:07:14.493Z,2.42
2023-02-02T06:12:16.389Z,2.15
2023-02-02T06:17:17.983Z,3.10
2023-02-02T06:22:19.728Z,2.95
2023-02-02T06:27:21.692Z,2.58
2023-02-02T06:32:23.444Z,2.60
2023-02-02T06:37:25.160Z,2.25
2023-02-02T06:42:27.017Z,2.53
2023-02-02T06:47:28.738Z,2.13
2023-02-02T06:52:30.667Z,2.10
2023-02-02T06:57:32.444Z,2.17
2023-02-02T07:02:34.211Z,2.10
2023-02-02T07:07:35.846Z,2.00
2023-02-02T07:12:38.329Z,2.50
2023-02-02T07:22:42.027Z,2.35
2023-02-02T07:27:43.676Z,2.72
2023-02-02T07:32:49.553Z,2.55
2023-02-02T07:37:55.378Z,2.67
2023-02-02T07:43:00.549Z,2.30
2023-02-02T07:48:03.290Z,2.25
2023-02-02T07:53:04.924Z,2.63
2023-02-02T07:58:07.785Z,2.28
2023-02-02T08:08:14.367Z,1.95
2023-02-02T08:13:16.249Z,1.90
2023-02-02T08:18:18.088Z,2.03
2023-02-02T08:23:23.565Z,2.10
2023-02-02T08:28:25.453Z,1.95
2023-02-02T08:33:27.152Z,1.77
2023-02-02T08:38:29.125Z,2.00
2023-02-02T08:43:30.981Z,2.43
2023-02-02T08:48:34.570Z,1.85
2023-02-02T08:53:36.301Z,1.80
2023-02-02T08:58:37.989Z,1.90
2023-02-02T09:03:40.504Z,1.87
2023-02-02T09:08:42.706Z,2.22
2023-02-02T09:13:47.492Z,1.85
2023-02-02T09:18:49.389Z,1.42
2023-02-02T09:23:53.760Z,1.90
2023-02-02T09:29:02.619Z,1.70
2023-02-02T09:34:10.218Z,1.40
2023-02-02T09:39:13.046Z,1.60
2023-02-02T09:44:30.354Z,2.00
2023-02-02T09:49:49.778Z,2.05
2023-02-02T09:54:57.732Z,1.92
2023-02-02T09:59:59.428Z,2.50
2023-02-02T10:05:08.993Z,2.72
2023-02-02T10:10:18.097Z,2.30
2023-02-02T10:15:38.382Z,2.30
2023-02-02T10:21:03.501Z,2.50
2023-02-02T10:26:18.391Z,1.92
2023-02-02T10:31:35.482Z,2.22
2023-02-02T10:37:28.360Z,2.00
2023-02-02T10:42:35.551Z,2.43
2023-02-02T10:47:38.548Z,2.10
2023-02-02T10:52:54.276Z,2.40
2023-02-02T10:58:11.209Z,2.53
2023-02-02T11:03:15.175Z,2.22
2023-02-02T11:08:45.452Z,2.35
2023-02-02T11:13:58.225Z,2.80
2023-02-02T11:19:00.791Z,2.28
2023-02-02T11:24:05.803Z,2.20
2023-02-02T11:29:14.766Z,2.25
2023-02-02T11:34:23.506Z,2.42
2023-02-02T11:39:26.267Z,2.17
2023-02-02T11:44:30.219Z,2.67
2023-02-02T11:49:42.549Z,2.60
2023-02-02T11:54:49.047Z,2.40
2023-02-02T12:00:12.051Z,2.50
2023-02-02T12:05:23.417Z,2.67
2023-02-02T12:10:32.416Z,2.47
2023-02-02T12:16:15.853Z,3.03
2023-02-02T12:21:35.679Z,2.65
2023-02-02T12:26:41.403Z,2.50
2023-02-02T12:31:57.698Z,2.50
2023-02-02T12:37:17.560Z,2.25
2023-02-02T12:42:45.946Z,1.98
2023-02-02T12:48:10.356Z,1.95
2023-02-02T12:53:42.394Z,2.30
2023-02-02T12:58:53.893Z,2.40
2023-02-02T13:04:35.310Z,1.75
2023-02-02T13:09:49.831Z,1.67
2023-02-02T13:14:54.827Z,1.70
2023-02-02T13:20:03.410Z,1.80
2023-02-02T13:25:10.462Z,1.77
2023-02-02T13:30:32.945Z,1.98
2023-02-02T13:35:42.819Z,1.33
2023-02-02T13:40:44.925Z,2.10
2023-02-02T13:46:24.224Z,1.83
2023-02-02T13:51:34.607Z,2.40
2023-02-02T13:56:53.285Z,2.10
2023-02-02T14:01:58.145Z,1.85
2023-02-02T14:07:06.131Z,1.70
2023-02-02T14:12:11.226Z,1.58
2023-02-02T14:17:17.293Z,1.73
2023-02-02T14:22:37.692Z,1.90
2023-02-02T14:27:53.827Z,1.70
2023-02-02T14:33:21.215Z,2.00
2023-02-02T14:38:44.329Z,2.17
2023-02-02T14:43:51.850Z,1.75
2023-02-02T14:48:53.633Z,1.90
2023-02-02T14:54:00.768Z,2.00
2023-02-02T14:59:04.298Z,1.50
2023-02-02T15:04:21.497Z,1.60
2023-02-02T15:09:23.427Z,1.42
2023-02-02T15:14:53.239Z,1.60
2023-02-02T15:20:06.894Z,1.70
2023-02-02T15:25:40.890Z,1.58
2023-02-02T15:30:45.380Z,1.85
2023-02-02T15:35:48.278Z,2.13
2023-02-02T15:46:02.532Z,1.80
2023-02-02T15:51:13.899Z,1.90
2023-02-02T15:56:20.950Z,2.10
2023-02-02T16:01:24.714Z,1.88
2023-02-02T16:06:26.616Z,1.85
2023-02-02T16:11:29.654Z,1.73
2023-02-02T16:16:32.975Z,1.67
2023-02-02T16:21:41.542Z,2.08
2023-02-02T16:26:43.516Z,1.90
2023-02-02T16:31:47.770Z,2.10
2023-02-02T16:37:12.351Z,2.65
2023-02-02T16:42:29.311Z,2.13
2023-02-02T16:47:34.067Z,2.53
2023-02-02T16:52:50.593Z,2.60
2023-02-02T16:57:52.484Z,2.58
2023-02-02T17:03:08.980Z,2.87
2023-02-02T17:08:11.371Z,3.25
2023-02-02T17:13:42.903Z,2.80
2023-02-02T17:18:44.826Z,2.78
2023-02-02T17:23:47.091Z,3.15
2023-02-02T17:28:50.749Z,2.90
2023-02-02T17:33:52.366Z,2.67
2023-02-02T17:38:54.148Z,2.58
2023-02-02T17:43:55.876Z,2.92
2023-02-02T17:48:58.285Z,3.03
2023-02-02T17:54:00.396Z,3.03
2023-02-02T17:59:02.118Z,3.20
2023-02-02T18:04:05.060Z,3.38
2023-02-02T18:09:07.099Z,3.25
2023-02-02T18:14:09.418Z,3.30
2023-02-02T18:19:11.182Z,3.10
2023-02-02T18:24:15.411Z,3.40
2023-02-02T18:29:17.079Z,3.10
2023-02-02T18:34:18.743Z,3.13
2023-02-02T18:39:20.423Z,3.00
2023-02-02T18:44:23.855Z,3.45
2023-02-02T18:49:25.619Z,3.30
2023-02-02T18:54:27.336Z,4.10
2023-02-02T18:59:29.672Z,3.95
2023-02-02T19:04:31.472Z,3.83
2023-02-02T19:14:38.539Z,4.20
2023-02-02T19:19:42.909Z,4.00
2023-02-02T19:24:44.586Z,3.35
2023-02-02T19:29:48.942Z,3.42
2023-02-02T19:35:01.467Z,3.03
2023-02-02T19:40:09.343Z,3.70
2023-02-02T19:45:21.847Z,3.97
2023-02-02T19:50:27.360Z,3.47
2023-02-02T19:55:35.831Z,4.03
2023-02-02T20:00:38.857Z,3.97
2023-02-02T20:05:44.606Z,3.92
2023-02-02T20:10:46.556Z,3.42
2023-02-02T20:15:54.655Z,3.78
2023-02-02T20:20:59.221Z,3.90
2023-02-02T20:26:03.769Z,4.22
2023-02-02T20:31:05.987Z,3.67
2023-02-02T20:36:34.340Z,3.40
2023-02-02T20:41:36.037Z,3.97
2023-02-02T20:46:37.714Z,2.75
2023-02-02T20:51:40.941Z,3.38
2023-02-02T20:56:43.017Z,3.67
2023-02-02T21:01:44.761Z,3.95
2023-02-02T21:06:48.713Z,3.57
2023-02-02T21:11:50.491Z,3.92
2023-02-02T21:16:57.409Z,3.45
2023-02-02T21:22:07.183Z,3.22
2023-02-02T21:27:09.246Z,3.47
2023-02-02T21:32:11.112Z,3.80
2023-02-02T21:37:15.223Z,3.10
2023-02-02T21:42:25.124Z,3.20
2023-02-02T21:47:35.916Z,3.28
2023-02-02T21:52:37.907Z,3.55
2023-02-02T21:57:42.067Z,3.03
2023-02-02T22:02:48.381Z,3.10
2023-02-02T22:07:50.941Z,2.90
2023-02-02T22:12:52.826Z,3.40
2023-02-02T22:17:54.481Z,2.83
2023-02-02T22:22:56.154Z,2.97
2023-02-02T22:28:00.121Z,2.85
2023-02-02T22:33:02.124Z,3.13
2023-02-02T22:38:04.398Z,3.40
2023-02-02T22:43:07.782Z,3.00
2023-02-02T22:48:09.751Z,3.22
2023-02-02T22:53:13.814Z,3.10
2023-02-02T22:58:15.768Z,2.85
2023-02-02T23:03:17.820Z,2.90
2023-02-02T23:08:19.505Z,2.87
2023-02-02T23:13:21.286Z,3.05
2023-02-02T23:18:23.045Z,3.50
2023-02-02T23:23:24.892Z,3.40
2023-02-02T23:28:26.691Z,2.78
2023-02-02T23:33:28.401Z,3.50
2023-02-02T23:38:30.158Z,3.13
2023-02-02T23:43:31.832Z,2.50
2023-02-02T23:48:35.113Z,2.90
2023-02-02T23:53:37.218Z,2.90
2023-02-02T23:58:38.844Z,2.40
